Time;durP1;ratioP1;P1;durP2;ratioP2;P2;SDS_P1;SDS_P2;PMS_P1;PMS_P2;Temp;Humidity;BMP_temperature;BMP_pressure;BME280_temperature;BME280_humidity;BME280_pressure;Samples;Min_cycle;Max_cycle;Signal;HPM_P1;HPM_P2
2021/04/07 00:01:46;;;;;;;23.75;14.38;;;;;;;-3.61;100.00;97205.72;5010620;28;20121;-73
2021/04/07 00:04:12;;;;;;;28.38;14.43;;;;;;;-3.54;100.00;97214.44;5010627;28;20037;-72
2021/04/07 00:06:40;;;;;;;31.23;15.52;;;;;;;-3.39;100.00;97209.53;4992570;28;20104;-73
2021/04/07 00:09:06;;;;;;;24.60;17.33;;;;;;;-3.58;100.00;97215.94;5009717;28;20034;-73
2021/04/07 00:11:32;;;;;;;23.38;14.85;;;;;;;-3.51;100.00;97221.22;5010373;28;20030;-73
2021/04/07 00:13:59;;;;;;;22.15;13.73;;;;;;;-3.43;100.00;97219.03;5010512;28;20034;-73
2021/04/07 00:16:24;;;;;;;26.92;14.88;;;;;;;-3.48;100.00;97220.75;5010326;28;20029;-73
2021/04/07 00:18:50;;;;;;;20.40;14.23;;;;;;;-3.53;100.00;97217.94;5010226;28;20229;-73
2021/04/07 00:21:15;;;;;;;23.70;15.93;;;;;;;-3.67;100.00;97219.16;5027237;28;20421;-72
2021/04/07 00:23:41;;;;;;;22.77;12.82;;;;;;;-3.70;100.00;97206.25;5028959;28;20546;-73
2021/04/07 00:26:06;;;;;;;20.30;12.85;;;;;;;-3.47;100.00;97215.19;5029827;28;20038;-72
2021/04/07 00:28:32;;;;;;;25.15;15.05;;;;;;;-3.42;100.00;97219.88;5030326;28;20919;-73
2021/04/07 00:30:58;;;;;;;28.48;15.15;;;;;;;-3.33;100.00;97219.34;5030103;28;20036;-73
2021/04/07 00:33:24;;;;;;;22.77;14.15;;;;;;;-3.49;100.00;97209.25;5029985;28;20026;-73
2021/04/07 00:35:49;;;;;;;20.25;12.40;;;;;;;-3.60;100.00;97207.31;5030075;28;20482;-73
2021/04/07 00:38:15;;;;;;;27.50;12.80;;;;;;;-3.35;100.00;97210.69;5031650;28;20025;-73
2021/04/07 00:40:40;;;;;;;23.77;13.07;;;;;;;-3.33;100.00;97213.97;5032107;28;20036;-73
2021/04/07 00:43:06;;;;;;;26.13;12.57;;;;;;;-3.46;99.63;97224.03;5029431;28;20049;-73
2021/04/07 00:45:32;;;;;;;23.02;12.73;;;;;;;-3.66;99.89;97221.56;5029905;28;20061;-73
2021/04/07 00:47:58;;;;;;;18.05;11.40;;;;;;;-3.60;99.86;97218.00;5029913;28;20026;-73
2021/04/07 00:50:26;;;;;;;20.92;12.02;;;;;;;-3.82;99.10;97198.13;5029557;28;20524;-74
2021/04/07 00:52:52;;;;;;;16.27;11.63;;;;;;;-3.60;99.36;97207.31;5028891;28;20075;-73
2021/04/07 00:55:20;;;;;;;18.65;11.48;;;;;;;-3.68;99.15;97214.84;5029203;28;20120;-74
2021/04/07 00:57:46;;;;;;;22.08;11.35;;;;;;;-3.77;99.05;97217.00;5028830;28;20856;-73
2021/04/07 01:00:13;;;;;;;21.08;11.38;;;;;;;-4.07;98.96;97224.91;5028356;28;20021;-73
2021/04/07 01:02:39;;;;;;;19.35;10.43;;;;;;;-4.27;99.54;97229.66;5028829;28;20038;-73
2021/04/07 01:05:06;;;;;;;16.92;10.55;;;;;;;-4.34;99.90;97224.38;5028931;28;20444;-73
2021/04/07 01:07:32;;;;;;;22.77;11.57;;;;;;;-4.23;100.00;97222.00;5028834;28;20528;-73
2021/04/07 01:09:57;;;;;;;19.02;11.15;;;;;;;-4.39;100.00;97234.88;5028993;28;20029;-74
2021/04/07 01:12:23;;;;;;;16.65;12.50;;;;;;;-4.35;100.00;97246.75;5032309;28;20079;-73
2021/04/07 01:14:49;;;;;;;18.35;10.27;;;;;;;-4.43;100.00;97233.69;5014026;28;20029;-73
2021/04/07 01:17:14;;;;;;;17.23;10.55;;;;;;;-4.51;99.71;97235.81;5032419;28;20434;-73
2021/04/07 01:19:42;;;;;;;15.98;10.23;;;;;;;-4.38;99.08;97241.00;5032215;28;20013;-73
2021/04/07 01:22:07;;;;;;;15.43;9.90;;;;;;;-4.47;98.09;97258.34;5032697;28;20393;-73
2021/04/07 01:24:33;;;;;;;13.95;9.75;;;;;;;-4.74;97.23;97255.06;5032109;28;20035;-73
2021/04/07 01:26:59;;;;;;;10.52;8.27;;;;;;;-4.81;97.69;97248.97;5032701;28;20021;-74
2021/04/07 01:29:25;;;;;;;12.05;8.98;;;;;;;-4.60;97.14;97247.75;5033028;28;20498;-73
2021/04/07 01:31:55;;;;;;;17.58;10.30;;;;;;;-4.56;97.60;97241.78;5032337;28;20052;-73
2021/04/07 01:34:22;;;;;;;18.55;9.98;;;;;;;-4.63;97.10;97237.53;5031568;28;20120;-73
2021/04/07 01:36:52;;;;;;;16.52;10.27;;;;;;;-4.62;97.18;97237.31;5029414;28;20017;-73
2021/04/07 01:39:18;;;;;;;20.33;11.20;;;;;;;-4.77;97.47;97230.69;5030254;28;20103;-73
2021/04/07 01:41:45;;;;;;;16.05;10.77;;;;;;;-4.75;98.18;97231.28;5028541;28;20056;-73
2021/04/07 01:44:11;;;;;;;16.40;9.35;;;;;;;-4.44;98.19;97242.72;5021175;28;20061;-73
2021/04/07 01:46:38;;;;;;;13.18;7.82;;;;;;;-4.32;97.67;97230.28;5032196;28;20128;-73
2021/04/07 01:49:06;;;;;;;17.63;9.75;;;;;;;-4.41;98.06;97228.13;5019791;28;20386;-73
2021/04/07 01:51:32;;;;;;;14.77;9.57;;;;;;;-4.50;98.33;97238.25;5012438;28;20518;-73
2021/04/07 01:54:03;;;;;;;15.30;11.23;;;;;;;-4.40;98.21;97232.44;5011724;28;20029;-73
2021/04/07 01:56:29;;;;;;;16.55;10.30;;;;;;;-4.40;98.70;97238.59;5011993;28;20034;-73
2021/04/07 01:59:05;;;;;;;14.75;10.00;;;;;;;-4.42;98.79;97245.19;5012563;28;20095;-73
2021/04/07 02:01:31;;;;;;;12.45;8.80;;;;;;;-4.46;99.45;97234.13;4991907;28;20471;-73
2021/04/07 02:03:57;;;;;;;16.08;10.65;;;;;;;-4.43;99.20;97227.53;4992425;28;20018;-73
2021/04/07 02:06:23;;;;;;;27.92;12.75;;;;;;;-4.20;100.00;97243.75;4992575;28;20105;-73
2021/04/07 02:08:48;;;;;;;24.33;13.20;;;;;;;-4.15;99.74;97249.22;5005756;28;20770;-74
2021/04/07 02:11:15;;;;;;;26.00;14.68;;;;;;;-4.07;100.00;97248.16;5010570;28;20065;-72
2021/04/07 02:13:41;;;;;;;40.67;14.38;;;;;;;-4.15;100.00;97251.06;5011391;28;20022;-73
2021/04/07 02:16:12;;;;;;;30.50;15.38;;;;;;;-4.05;100.00;97259.41;5011744;28;20026;-73
2021/04/07 02:18:37;;;;;;;23.40;12.40;;;;;;;-4.03;100.00;97249.31;5011312;28;20045;-73
2021/04/07 02:21:03;;;;;;;27.88;14.18;;;;;;;-3.94;100.00;97234.63;5011115;28;20099;-73
2021/04/07 02:23:28;;;;;;;24.83;13.88;;;;;;;-3.83;100.00;97255.28;5010905;28;20494;-73
2021/04/07 02:25:54;;;;;;;27.92;14.07;;;;;;;-3.75;100.00;97246.97;5011372;28;20026;-73
2021/04/07 02:28:19;;;;;;;23.70;13.35;;;;;;;-4.03;100.00;97260.00;5011836;28;20116;-73
2021/04/07 02:30:44;;;;;;;24.85;13.98;;;;;;;-3.99;100.00;97250.50;5011096;28;20029;-73
2021/04/07 02:33:10;;;;;;;21.95;11.95;;;;;;;-3.81;100.00;97253.19;5011457;28;20029;-74
2021/04/07 02:35:35;;;;;;;25.85;12.65;;;;;;;-4.00;100.00;97243.53;5010600;28;20073;-74
2021/04/07 02:38:01;;;;;;;20.55;11.98;;;;;;;-3.94;100.00;97245.31;5010450;28;20379;-74
2021/04/07 02:40:26;;;;;;;25.40;13.10;;;;;;;-3.92;100.00;97249.41;5010082;28;20026;-73
2021/04/07 02:42:51;;;;;;;27.98;13.35;;;;;;;-4.16;100.00;97228.09;5010453;28;20442;-73
2021/04/07 02:45:17;;;;;;;28.23;14.48;;;;;;;-4.04;100.00;97253.03;5010244;28;20018;-73
2021/04/07 02:47:42;;;;;;;26.75;13.50;;;;;;;-4.15;100.00;97251.06;5011234;28;20052;-74
2021/04/07 02:50:08;;;;;;;21.08;12.57;;;;;;;-4.18;100.00;97252.34;5019673;28;20083;-73
2021/04/07 02:52:33;;;;;;;21.20;12.65;;;;;;;-4.08;100.00;97255.34;5031287;28;20079;-74
2021/04/07 02:54:59;;;;;;;22.38;12.75;;;;;;;-3.98;100.00;97257.50;5031844;28;20034;-73
2021/04/07 02:57:24;;;;;;;25.83;12.82;;;;;;;-3.99;100.00;97247.84;5035937;28;20533;-73
2021/04/07 02:59:50;;;;;;;31.83;13.82;;;;;;;-3.96;100.00;97261.56;5033220;28;20033;-75
2021/04/07 03:02:15;;;;;;;23.45;12.73;;;;;;;-3.85;100.00;97258.16;5031419;28;20064;-73
2021/04/07 03:04:40;;;;;;;32.08;13.23;;;;;;;-4.05;100.00;97248.72;5030958;28;20099;-75
2021/04/07 03:07:06;;;;;;;23.45;12.73;;;;;;;-3.95;100.00;97260.53;5013084;28;20059;-75
2021/04/07 03:09:31;;;;;;;23.17;12.50;;;;;;;-3.72;100.00;97251.03;5031132;28;20029;-73
2021/04/07 03:11:57;;;;;;;25.52;12.25;;;;;;;-3.69;100.00;97262.09;5030592;28;20029;-73
2021/04/07 03:14:23;;;;;;;21.10;11.48;;;;;;;-3.81;100.00;97266.53;5030862;28;20037;-74
2021/04/07 03:16:48;;;;;;;27.95;12.93;;;;;;;-4.02;100.00;97277.66;5030837;28;20442;-73
2021/04/07 03:19:14;;;;;;;35.28;14.05;;;;;;;-3.87;100.00;97270.09;5030444;28;20057;-73
2021/04/07 03:21:39;;;;;;;31.35;13.18;;;;;;;-3.91;100.00;97255.56;5030099;28;20037;-73
2021/04/07 03:24:05;;;;;;;26.88;13.50;;;;;;;-3.93;100.00;97246.97;5013153;28;20029;-73
2021/04/07 03:26:31;;;;;;;27.23;14.05;;;;;;;-3.84;100.00;97264.31;5030828;28;20032;-73
2021/04/07 03:28:56;;;;;;;32.47;13.70;;;;;;;-3.67;100.00;97269.91;5030891;28;20041;-75
2021/04/07 03:31:22;;;;;;;26.05;11.85;;;;;;;-3.85;99.28;97273.34;5012113;28;20032;-75
2021/04/07 03:33:48;;;;;;;21.58;11.88;;;;;;;-3.98;99.62;97276.97;5029832;28;20029;-73
2021/04/07 03:36:13;;;;;;;22.38;12.90;;;;;;;-4.00;99.59;97275.56;5030462;28;20110;-73
2021/04/07 03:38:38;;;;;;;21.98;12.35;;;;;;;-3.91;99.42;97287.59;5030738;28;20025;-73
2021/04/07 03:41:04;;;;;;;27.27;14.07;;;;;;;-3.94;99.73;97291.53;5014443;28;20112;-74
2021/04/07 03:43:30;;;;;;;21.95;12.48;;;;;;;-4.01;99.64;97289.97;5035151;28;20119;-74
2021/04/07 03:45:57;;;;;;;21.33;13.05;;;;;;;-3.88;99.61;97295.16;5031341;28;20034;-73
2021/04/07 03:48:25;;;;;;;23.38;12.70;;;;;;;-3.82;98.53;97311.13;5030606;28;20021;-73
2021/04/07 03:50:51;;;;;;;25.83;13.65;;;;;;;-3.87;98.38;97307.50;5030263;28;20052;-73
2021/04/07 03:53:17;;;;;;;29.67;16.33;;;;;;;-3.78;98.74;97295.47;5030127;28;20120;-73
2021/04/07 03:55:46;;;;;;;35.88;21.35;;;;;;;-3.67;98.21;97310.78;5030257;28;20120;-73
2021/04/07 03:58:11;;;;;;;50.33;28.75;;;;;;;-3.82;98.77;97321.81;5013133;28;20030;-73
2021/04/07 04:00:37;;;;;;;27.38;13.55;;;;;;;-3.88;99.82;97308.53;5030228;28;20026;-74
2021/04/07 04:03:02;;;;;;;30.73;13.63;;;;;;;-3.81;100.00;97312.78;5030239;28;20025;-73
2021/04/07 04:05:28;;;;;;;21.52;12.02;;;;;;;-3.81;99.75;97322.63;5029987;28;20533;-73
2021/04/07 04:07:53;;;;;;;25.65;11.70;;;;;;;-3.82;100.00;97315.66;5029640;28;20022;-73
2021/04/07 04:10:19;;;;;;;30.73;12.05;;;;;;;-3.84;100.00;97323.91;5030328;28;20386;-73
2021/04/07 04:12:45;;;;;;;24.83;12.02;;;;;;;-3.72;100.00;97325.81;5030242;28;20378;-73
2021/04/07 04:15:12;;;;;;;23.00;11.65;;;;;;;-3.71;100.00;97317.59;5030160;28;20073;-73
2021/04/07 04:17:39;;;;;;;30.15;12.32;;;;;;;-3.92;100.00;97331.38;5030192;28;20026;-73
2021/04/07 04:20:06;;;;;;;25.08;11.55;;;;;;;-3.80;100.00;97332.28;5030015;28;20135;-73
2021/04/07 04:22:32;;;;;;;22.48;11.75;;;;;;;-3.70;100.00;97332.59;5030260;28;20430;-74
2021/04/07 04:24:57;;;;;;;19.95;10.93;;;;;;;-3.65;99.63;97327.41;5029999;28;20041;-73
2021/04/07 04:27:23;;;;;;;29.02;11.90;;;;;;;-3.82;99.75;97337.03;5030031;28;20665;-73
2021/04/07 04:29:48;;;;;;;24.95;11.55;;;;;;;-3.94;99.52;97333.44;5030280;28;20037;-73
2021/04/07 04:32:14;;;;;;;28.40;11.95;;;;;;;-4.08;100.00;97332.75;5029887;28;20108;-74
2021/04/07 04:34:39;;;;;;;25.40;12.40;;;;;;;-3.75;99.95;97347.63;5029947;28;20040;-73
2021/04/07 04:37:04;;;;;;;23.67;11.88;;;;;;;-3.84;99.74;97341.78;5030052;28;20040;-73
2021/04/07 04:39:30;;;;;;;32.58;15.30;;;;;;;-3.89;99.70;97357.66;5029961;28;20112;-73
2021/04/07 04:41:56;;;;;;;28.48;12.38;;;;;;;-3.71;100.00;97365.69;5028843;28;20033;-73
2021/04/07 04:44:21;;;;;;;22.65;11.60;;;;;;;-3.67;99.92;97355.38;5030145;28;20025;-74
2021/04/07 04:46:47;;;;;;;25.35;11.70;;;;;;;-3.79;100.00;97363.31;5033581;28;20032;-73
2021/04/07 04:49:12;;;;;;;27.85;12.13;;;;;;;-3.59;99.92;97368.44;5033324;28;20030;-73
2021/04/07 04:51:38;;;;;;;32.92;16.70;;;;;;;-3.54;99.85;97365.97;5033147;28;20386;-73
2021/04/07 04:54:03;;;;;;;20.35;11.65;;;;;;;-3.38;99.02;97360.00;5033042;28;20036;-73
2021/04/07 04:56:29;;;;;;;22.73;11.95;;;;;;;-3.48;99.24;97363.22;5032475;28;20116;-73
2021/04/07 04:58:55;;;;;;;20.63;11.05;;;;;;;-3.53;98.58;97365.72;5032344;28;20021;-73
2021/04/07 05:01:20;;;;;;;27.75;12.88;;;;;;;-3.76;98.85;97373.56;5031855;28;20029;-73
2021/04/07 05:03:46;;;;;;;24.88;12.20;;;;;;;-3.75;99.19;97369.84;5032017;28;20026;-72
2021/04/07 05:06:11;;;;;;;22.02;12.32;;;;;;;-3.67;99.27;97372.25;5032030;28;20037;-71
2021/04/07 05:08:36;;;;;;;24.33;11.20;;;;;;;-3.66;98.80;97362.34;5032033;28;20109;-72
2021/04/07 05:11:02;;;;;;;22.73;11.50;;;;;;;-3.59;98.36;97379.97;5031920;28;20368;-72
2021/04/07 05:13:27;;;;;;;25.35;12.70;;;;;;;-3.48;98.35;97381.94;5014279;28;20056;-73
2021/04/07 05:15:52;;;;;;;21.38;12.48;;;;;;;-3.30;96.97;97383.78;5010278;28;20478;-73
2021/04/07 05:18:19;;;;;;;22.33;12.00;;;;;;;-3.25;96.97;97405.31;5028592;28;20037;-73
2021/04/07 05:20:45;;;;;;;31.42;14.73;;;;;;;-3.49;97.57;97395.50;5028672;28;20022;-73
2021/04/07 05:23:10;;;;;;;26.40;13.20;;;;;;;-3.30;97.99;97405.16;5030605;28;20032;-72
2021/04/07 05:25:46;;;;;;;25.02;11.27;;;;;;;-3.07;97.50;97401.84;5029665;28;20037;-74
2021/04/07 05:28:11;;;;;;;28.00;13.57;;;;;;;-2.81;96.19;97398.84;5023534;28;20368;-72
2021/04/07 05:33:22;;;;;;;34.78;15.07;;;;;;;-2.93;96.58;97408.66;5028222;28;20061;-73
2021/04/07 05:35:51;;;;;;;25.45;13.27;;;;;;;-2.92;96.00;97415.66;5011961;28;20504;-72
2021/04/07 05:38:17;;;;;;;25.25;11.73;;;;;;;-3.10;95.81;97411.09;5030068;28;20059;-73
2021/04/07 05:40:46;;;;;;;24.38;13.13;;;;;;;-2.82;95.46;97402.59;5029501;28;20033;-72
2021/04/07 05:43:11;;;;;;;27.48;13.15;;;;;;;-2.54;94.48;97421.59;5012217;28;20120;-73
2021/04/07 05:45:40;;;;;;;27.42;14.15;;;;;;;-2.94;94.08;97423.06;5029804;28;20119;-74
2021/04/07 05:48:07;;;;;;;28.33;12.50;;;;;;;-2.65;93.83;97425.00;5030394;28;20034;-74
2021/04/07 05:50:35;;;;;;;31.55;14.30;;;;;;;-2.60;93.25;97430.47;5031003;28;20060;-73
2021/04/07 05:53:01;;;;;;;22.85;12.15;;;;;;;-2.60;93.67;97430.47;5032661;28;20037;-73
2021/04/07 05:55:26;;;;;;;26.10;14.07;;;;;;;-2.41;93.42;97429.41;5030312;28;20025;-73
2021/04/07 05:58:02;;;;;;;28.80;14.27;;;;;;;-2.75;92.73;97432.72;5029392;28;20021;-73
2021/04/07 06:00:28;;;;;;;33.92;14.13;;;;;;;-2.85;94.71;97441.28;5036435;28;20026;-73
2021/04/07 06:02:59;;;;;;;27.63;15.15;;;;;;;-3.08;94.66;97448.34;5033827;28;20034;-73
2021/04/07 06:05:27;;;;;;;30.92;14.48;;;;;;;-2.84;95.17;97450.94;5031536;28;20041;-73
2021/04/07 06:07:53;;;;;;;25.95;12.65;;;;;;;-2.82;93.37;97440.03;5031891;28;20025;-74
2021/04/07 06:10:18;;;;;;;29.95;13.43;;;;;;;-2.80;92.39;97449.47;5013647;28;20114;-72
2021/04/07 06:12:44;;;;;;;24.88;12.50;;;;;;;-2.82;92.46;97446.19;5030782;28;20112;-74
2021/04/07 06:15:11;;;;;;;30.88;14.93;;;;;;;-2.39;91.20;97451.44;5030140;28;20041;-73
2021/04/07 06:17:37;;;;;;;34.13;15.43;;;;;;;-2.06;90.75;97450.16;5013344;28;20038;-73
2021/04/07 06:20:08;;;;;;;23.70;12.95;;;;;;;-1.97;88.00;97454.19;5030823;28;20064;-73
2021/04/07 06:22:34;;;;;;;24.55;12.38;;;;;;;-1.47;86.03;97455.44;5030156;28;20038;-74
2021/04/07 06:25:04;;;;;;;21.95;12.20;;;;;;;-1.30;84.05;97455.56;5030679;28;20167;-75
2021/04/07 06:27:29;;;;;;;21.92;12.48;;;;;;;-1.29;84.66;97458.03;5030462;28;20033;-73
2021/04/07 06:29:54;;;;;;;28.15;14.63;;;;;;;-1.81;86.90;97453.50;5029626;28;20528;-73
2021/04/07 06:32:20;;;;;;;23.42;12.85;;;;;;;-1.98;87.01;97448.00;5011518;28;21131;-74
2021/04/07 06:34:45;;;;;;;27.77;13.35;;;;;;;-1.84;87.62;97465.50;5011231;28;20462;-73
2021/04/07 06:37:11;;;;;;;25.35;14.50;;;;;;;-1.99;87.40;97462.44;5029191;28;20029;-73
2021/04/07 06:39:36;;;;;;;;;;;;;;;-1.72;87.57;97465.53;5029682;28;20442;-73
2021/04/07 06:42:01;;;;;;;25.10;13.55;;;;;;;-1.84;87.28;97453.97;5029572;28;19913;-73
2021/04/07 06:44:28;;;;;;;24.55;13.32;;;;;;;-1.71;87.23;97467.16;5030405;28;20524;-74
2021/04/07 06:46:55;;;;;;;23.90;14.15;;;;;;;-1.52;86.93;97468.72;5030148;28;20133;-72
2021/04/07 06:49:23;;;;;;;22.52;12.02;;;;;;;-1.55;85.30;97474.53;5029522;28;20479;-73
2021/04/07 06:51:52;;;;;;;25.50;14.95;;;;;;;-1.85;86.32;97468.41;5022503;28;20079;-74
2021/04/07 06:54:23;;;;;;;23.45;13.93;;;;;;;-1.66;87.68;97478.81;5028098;28;20120;-74
2021/04/07 06:56:49;;;;;;;26.33;14.75;;;;;;;-1.73;86.86;97469.25;5025511;28;20118;-74
2021/04/07 06:59:15;;;;;;;20.00;13.23;;;;;;;-1.84;87.00;97475.41;5028850;28;20029;-74
2021/04/07 07:01:41;;;;;;;29.15;15.68;;;;;;;-1.88;87.94;97479.59;5028599;28;20386;-74
2021/04/07 07:04:07;;;;;;;29.08;14.48;;;;;;;-1.89;88.32;97480.63;5011025;28;20025;-74
2021/04/07 07:06:33;;;;;;;25.63;12.80;;;;;;;-1.88;89.52;97474.25;5028734;28;20575;-74
2021/04/07 07:08:59;;;;;;;25.75;12.52;;;;;;;-1.53;87.67;97491.22;5028620;28;20819;-74
2021/04/07 07:11:27;;;;;;;32.92;14.15;;;;;;;-1.14;86.48;97493.25;5028712;28;20078;-75
2021/04/07 07:13:53;;;;;;;33.13;15.50;;;;;;;-1.26;86.20;97484.38;5028836;28;20022;-74
2021/04/07 07:16:26;;;;;;;24.05;13.73;;;;;;;-1.26;85.73;97483.56;5011092;28;20037;-75
2021/04/07 07:18:51;;;;;;;22.88;13.55;;;;;;;-1.42;85.55;97481.56;5029735;28;20084;-74
2021/04/07 07:21:17;;;;;;;23.90;14.70;;;;;;;-1.28;84.97;97480.28;5028747;28;20485;-73
2021/04/07 07:23:46;;;;;;;28.67;14.43;;;;;;;-1.17;84.70;97491.03;5029660;28;20025;-74
2021/04/07 07:26:13;;;;;;;27.05;13.73;;;;;;;-1.46;85.80;97488.44;5029070;28;20035;-74
2021/04/07 07:28:53;;;;;;;27.58;15.20;;;;;;;-1.09;84.40;97482.63;5029799;28;20047;-73
2021/04/07 07:31:30;;;;;;;28.40;13.77;;;;;;;-1.20;84.42;97490.69;5029838;28;20033;-73
2021/04/07 07:33:58;;;;;;;26.83;15.45;;;;;;;-0.89;83.74;97492.19;5030092;28;20033;-73
2021/04/07 07:36:34;;;;;;;26.17;15.63;;;;;;;-0.87;83.36;97488.22;5030012;28;20052;-73
2021/04/07 07:39:00;;;;;;;28.10;15.13;;;;;;;-0.66;83.15;97497.56;5031659;28;20033;-73
2021/04/07 07:41:34;;;;;;;21.70;14.38;;;;;;;-0.23;80.46;97489.88;5033171;28;20037;-74
2021/04/07 07:44:00;;;;;;;30.02;16.08;;;;;;;-0.35;80.11;97502.53;5004020;28;20044;-73
2021/04/07 07:46:27;;;;;;;21.58;14.57;;;;;;;0.20;79.39;97518.13;5028842;28;20402;-72
2021/04/07 07:48:53;;;;;;;22.15;13.82;;;;;;;-0.15;79.28;97508.31;5030718;28;20032;-73
2021/04/07 07:51:23;;;;;;;26.38;14.10;;;;;;;-0.43;79.20;97497.50;5030173;28;20049;-73
2021/04/07 07:53:51;;;;;;;24.80;14.60;;;;;;;-0.50;80.14;97507.56;5029227;28;20108;-73
2021/04/07 07:56:18;;;;;;;28.63;15.60;;;;;;;-0.24;79.54;97514.28;5028355;28;20034;-73
2021/04/07 07:58:53;;;;;;;33.17;15.30;;;;;;;0.61;76.89;97523.19;5011737;28;20067;-72
2021/04/07 08:01:19;;;;;;;24.95;14.05;;;;;;;1.21;82.05;97522.53;5028395;28;20032;-73
2021/04/07 08:03:47;;;;;;;23.33;14.27;;;;;;;0.97;75.38;97522.69;5028664;28;20028;-72
2021/04/07 08:06:14;;;;;;;23.75;13.63;;;;;;;0.76;75.90;97520.75;5028513;28;20026;-72
2021/04/07 08:08:41;;;;;;;20.83;13.77;;;;;;;0.74;74.03;97528.25;5029576;28;20037;-72
2021/04/07 08:11:08;;;;;;;22.25;12.98;;;;;;;1.51;71.66;97528.38;5028795;28;20036;-73
2021/04/07 08:13:46;;;;;;;22.60;13.30;;;;;;;1.90;69.51;97530.00;5028999;28;20033;-73
2021/04/07 08:16:16;;;;;;;22.13;12.73;;;;;;;2.85;66.91;97523.97;5028325;28;20029;-73
2021/04/07 08:18:45;;;;;;;19.52;12.43;;;;;;;3.33;64.45;97541.13;5013955;28;20386;-73
2021/04/07 08:21:13;;;;;;;19.63;12.38;;;;;;;4.02;61.22;97539.09;5036989;28;20105;-74
2021/04/07 08:23:41;;;;;;;16.55;11.32;;;;;;;4.05;61.16;97542.09;5033644;28;20025;-74
2021/04/07 08:26:08;;;;;;;19.05;11.68;;;;;;;3.45;62.50;97539.03;5032696;28;20112;-73
2021/04/07 08:28:34;;;;;;;18.40;12.15;;;;;;;3.19;63.44;97540.75;5033129;28;20410;-73
2021/04/07 08:31:00;;;;;;;20.70;12.32;;;;;;;4.01;61.43;97543.69;5032919;28;20488;-73
2021/04/07 08:33:25;;;;;;;21.00;12.77;;;;;;;3.80;61.52;97541.97;5033049;28;20032;-73
2021/04/07 08:35:52;;;;;;;19.75;12.13;;;;;;;4.31;60.17;97541.13;5032333;28;20029;-73
2021/04/07 08:38:30;;;;;;;17.75;12.43;;;;;;;5.07;57.30;97546.72;5015005;28;20017;-73
2021/04/07 08:41:07;;;;;;;23.42;14.23;;;;;;;5.30;55.76;97557.00;5032558;28;20037;-74
2021/04/07 08:43:36;;;;;;;22.05;12.55;;;;;;;7.17;52.55;97552.84;5032806;28;20084;-74
2021/04/07 08:46:14;;;;;;;18.70;11.93;;;;;;;5.83;54.01;97549.34;5051630;28;20100;-74
2021/04/07 08:48:40;;;;;;;19.30;12.50;;;;;;;6.18;53.18;97562.03;5052106;28;20037;-74
2021/04/07 08:51:15;;;;;;;18.33;12.50;;;;;;;6.65;52.70;97561.56;5052859;28;20047;-73
2021/04/07 08:53:43;;;;;;;16.10;10.80;;;;;;;6.97;51.99;97559.22;5051976;28;20127;-73
2021/04/07 08:56:11;;;;;;;16.42;11.68;;;;;;;7.87;50.44;97559.56;5030994;28;20064;-73
2021/04/07 08:58:53;;;;;;;16.33;10.30;;;;;;;7.62;49.12;97565.22;5029631;28;20034;-73
2021/04/07 09:01:21;;;;;;;17.50;12.63;;;;;;;7.34;51.24;97564.13;5031149;28;20030;-73
2021/04/07 09:03:47;;;;;;;20.58;13.00;;;;;;;8.41;49.44;97565.53;5030914;28;20038;-74
2021/04/07 09:06:13;;;;;;;16.48;11.45;;;;;;;8.31;50.20;97568.38;5027473;28;20037;-73
2021/04/07 09:08:39;;;;;;;18.70;13.52;;;;;;;7.74;48.91;97566.47;5030830;28;20026;-73
2021/04/07 09:11:05;;;;;;;19.60;12.52;;;;;;;8.52;48.21;97563.50;5030951;28;20033;-72
2021/04/07 09:13:33;;;;;;;20.00;12.50;;;;;;;9.42;45.23;97566.03;5026929;28;20060;-72
2021/04/07 09:16:01;;;;;;;17.70;12.27;;;;;;;8.19;47.49;97576.09;5012563;28;20124;-73
2021/04/07 09:18:37;;;;;;;20.38;13.38;;;;;;;7.79;47.94;97566.44;5029658;28;20025;-74
2021/04/07 09:21:25;;;;;;;18.73;12.35;;;;;;;8.50;48.11;97569.22;5009359;28;20033;-73
2021/04/07 09:23:58;;;;;;;18.00;10.98;;;;;;;8.71;46.16;97579.91;5028838;28;20026;-74
2021/04/07 09:26:29;;;;;;;18.50;11.70;;;;;;;8.75;46.41;97584.44;5030816;28;20032;-72
2021/04/07 09:28:56;;;;;;;16.00;11.70;;;;;;;9.31;46.31;97579.00;5031140;28;20021;-72
2021/04/07 09:31:32;;;;;;;20.73;13.68;;;;;;;7.44;50.19;97573.00;5029564;28;20624;-72
2021/04/07 09:33:57;;;;;;;;;;;;;;;6.69;52.74;97579.75;5031254;28;20060;-72
2021/04/07 09:36:34;;;;;;;20.73;12.77;;;;;;;7.67;51.79;97573.38;5030644;28;20377;-72
2021/04/07 09:39:03;;;;;;;17.75;12.35;;;;;;;8.78;47.75;97583.06;5030936;28;20115;-73
2021/04/07 09:41:32;;;;;;;22.15;13.35;;;;;;;7.47;52.76;97588.78;5030452;28;20601;-73
2021/04/07 09:43:59;;;;;;;17.98;12.68;;;;;;;6.39;56.42;97591.56;5030529;28;20017;-73
2021/04/07 09:46:25;;;;;;;27.35;13.63;;;;;;;6.34;55.38;97593.50;5029836;28;20025;-74
2021/04/07 09:48:55;;;;;;;19.73;14.02;;;;;;;6.52;55.01;97590.16;5029950;28;20021;-74
2021/04/07 09:51:28;;;;;;;19.50;13.35;;;;;;;6.14;56.07;97596.28;5028634;28;20041;-74
2021/04/07 09:54:06;;;;;;;23.23;14.40;;;;;;;6.20;56.54;97593.25;5022468;28;20044;-74
2021/04/07 09:56:31;;;;;;;23.65;13.98;;;;;;;6.18;58.10;97590.00;5008796;28;20041;-73
2021/04/07 09:58:58;;;;;;;20.25;14.27;;;;;;;6.33;59.45;97594.56;5030119;28;20465;-74
2021/04/07 10:01:25;;;;;;;20.65;13.63;;;;;;;7.25;55.61;97601.19;5029859;28;20025;-73
2021/04/07 10:03:54;;;;;;;20.38;13.02;;;;;;;6.54;56.09;97598.03;5012181;28;20033;-74
2021/04/07 10:06:20;;;;;;;19.92;12.60;;;;;;;6.98;55.31;97594.25;5028954;28;20368;-74
2021/04/07 10:08:57;;;;;;;20.38;11.55;;;;;;;6.63;56.58;97601.81;5029740;28;20053;-74
2021/04/07 10:11:23;;;;;;;21.00;12.30;;;;;;;6.57;55.78;97602.91;5029928;28;20052;-74
2021/04/07 10:13:49;;;;;;;22.13;13.85;;;;;;;6.16;57.26;97597.63;5029653;28;20466;-73
2021/04/07 10:16:15;;;;;;;19.48;11.90;;;;;;;6.22;57.79;97603.84;5029187;28;20041;-74
2021/04/07 10:18:40;;;;;;;20.80;12.20;;;;;;;5.84;58.28;97607.97;5028819;28;20025;-75
2021/04/07 10:21:26;;;;;;;14.80;10.32;;;;;;;5.71;58.28;97612.06;5011617;28;20045;-75
2021/04/07 10:23:55;;;;;;;20.80;11.80;;;;;;;5.67;59.19;97616.38;5027922;28;20389;-74
2021/04/07 10:26:21;;;;;;;13.93;9.80;;;;;;;5.64;59.46;97616.94;5029234;28;20493;-74
2021/04/07 10:29:00;;;;;;;18.33;10.77;;;;;;;5.27;59.25;97627.22;5029246;28;20689;-73
2021/04/07 10:31:27;;;;;;;17.52;9.90;;;;;;;4.91;60.31;97618.22;5027173;28;20021;-73
2021/04/07 10:34:07;;;;;;;15.30;10.55;;;;;;;5.44;59.41;97625.09;5029337;28;20471;-73
2021/04/07 10:36:33;;;;;;;16.23;10.55;;;;;;;6.19;56.32;97626.94;5027775;28;20033;-74
2021/04/07 10:39:10;;;;;;;17.52;9.90;;;;;;;6.13;55.64;97636.19;5033724;28;20047;-74
2021/04/07 10:41:36;;;;;;;12.20;8.75;;;;;;;5.38;56.72;97629.69;5031471;28;20025;-74
2021/04/07 10:44:01;;;;;;;12.57;9.00;;;;;;;6.36;54.96;97630.16;5011583;28;20107;-74
2021/04/07 10:46:31;;;;;;;14.95;9.10;;;;;;;6.41;54.84;97635.59;5028382;28;20037;-75
2021/04/07 10:48:58;;;;;;;13.52;10.05;;;;;;;6.34;54.59;97628.81;5027734;28;20100;-74
2021/04/07 10:51:24;;;;;;;14.75;10.45;;;;;;;6.43;54.04;97636.09;5028993;28;20686;-73
2021/04/07 10:53:59;;;;;;;14.27;9.90;;;;;;;6.99;53.54;97641.31;5028303;28;20039;-73
2021/04/07 10:56:27;;;;;;;14.82;9.50;;;;;;;6.34;55.38;97637.75;5029892;28;20071;-73
2021/04/07 10:58:53;;;;;;;15.20;10.20;;;;;;;6.47;55.08;97634.47;5029977;28;20112;-73
2021/04/07 11:01:31;;;;;;;18.98;10.85;;;;;;;5.30;57.58;97632.09;5030043;28;20049;-73
2021/04/07 11:03:56;;;;;;;12.80;9.00;;;;;;;6.13;56.06;97636.19;5029843;28;20087;-73
2021/04/07 11:06:25;;;;;;;14.95;9.50;;;;;;;5.78;56.58;97628.88;5030077;28;20097;-75
2021/04/07 11:08:52;;;;;;;14.52;9.88;;;;;;;6.44;54.57;97626.06;5023597;28;20044;-73
2021/04/07 11:11:25;;;;;;;17.05;9.90;;;;;;;6.04;55.56;97632.41;5011996;28;20386;-72
2021/04/07 11:13:52;;;;;;;13.00;8.50;;;;;;;5.69;55.88;97626.97;5029701;28;20029;-72
2021/04/07 11:16:20;;;;;;;12.60;8.13;;;;;;;6.43;55.33;97625.25;5029202;28;20029;-74
2021/04/07 11:18:46;;;;;;;13.43;8.80;;;;;;;6.09;57.28;97635.09;5012014;28;20113;-73
2021/04/07 11:21:13;;;;;;;13.10;9.02;;;;;;;6.25;55.35;97623.13;5012082;28;20065;-73
2021/04/07 11:23:38;;;;;;;10.93;7.70;;;;;;;6.19;54.13;97631.56;5030210;28;20091;-72